Time;durP1;ratioP1;P1;durP2;ratioP2;P2;SDS_P1;SDS_P2;PMS_P1;PMS_P2;Temp;Humidity;BMP_temperature;BMP_pressure;BME280_temperature;BME280_humidity;BME280_pressure;Samples;Min_cycle;Max_cycle;Signal;HPM_P1;HPM_P2
2022/08/14 00:00:15;;;;;;;10.00;7.80;;;;;;;16.03;85.13;96807.50;110170;1247;69263;-70
2022/08/14 00:03:03;;;;;;;13.90;10.10;;;;;;;15.98;85.44;96803.98;109974;1250;68583;-70
2022/08/14 00:05:32;;;;;;;12.70;9.20;;;;;;;15.97;86.45;96806.65;110021;1248;59697;-71
2022/08/14 00:08:03;;;;;;;11.10;8.60;;;;;;;16.00;87.47;96803.58;110146;1247;59717;-70
2022/08/14 00:10:42;;;;;;;16.10;11.50;;;;;;;16.05;87.41;96802.40;109686;1250;72033;-70
2022/08/14 00:13:23;;;;;;;14.70;10.00;;;;;;;16.07;86.98;96793.24;109837;1250;68605;-69
2022/08/14 00:15:59;;;;;;;13.00;8.80;;;;;;;16.05;85.61;96789.68;110040;1248;67889;-69
2022/08/14 00:18:28;;;;;;;13.40;8.60;;;;;;;16.04;86.93;96787.86;110070;1247;59834;-70
2022/08/14 00:21:17;;;;;;;15.40;10.50;;;;;;;16.03;86.69;96783.80;110029;1247;59684;-69
2022/08/14 00:23:56;;;;;;;13.00;9.30;;;;;;;15.99;87.49;96779.44;110081;1247;70777;-70
2022/08/14 00:26:30;;;;;;;11.80;8.40;;;;;;;15.93;87.40;96777.13;110090;1247;68597;-70
2022/08/14 00:28:59;;;;;;;13.70;9.10;;;;;;;15.88;87.21;96776.08;110119;1247;69530;-71
2022/08/14 00:31:29;;;;;;;9.60;7.60;;;;;;;15.84;87.39;96773.14;110000;1248;59684;-69
2022/08/14 00:34:13;;;;;;;11.50;8.20;;;;;;;15.80;86.61;96768.97;110139;1246;59655;-72
2022/08/14 00:37:04;;;;;;;10.10;7.10;;;;;;;15.78;86.68;96767.45;110225;1247;70742;-70
2022/08/14 00:39:36;;;;;;;12.20;7.50;;;;;;;15.76;85.84;96761.98;110234;1247;68863;-70
2022/08/14 00:42:06;;;;;;;10.10;6.80;;;;;;;15.76;85.67;96756.88;110076;1247;68666;-71
2022/08/14 00:44:50;;;;;;;13.00;8.20;;;;;;;15.75;82.86;96757.36;110081;1247;59710;-70
2022/08/14 00:47:23;;;;;;;16.30;10.80;;;;;;;15.72;83.03;96757.81;110088;1248;59693;-71
2022/08/14 00:49:55;;;;;;;15.20;10.50;;;;;;;15.70;87.49;96761.59;110105;1246;71604;-70
2022/08/14 00:52:24;;;;;;;16.70;11.20;;;;;;;15.63;88.33;96759.44;110242;1248;69332;-70
2022/08/14 00:54:55;;;;;;;17.00;11.80;;;;;;;15.59;88.34;96756.69;110113;1247;68789;-69
2022/08/14 00:57:32;;;;;;;15.40;12.00;;;;;;;15.55;88.86;96757.13;110067;1247;59711;-69
2022/08/14 01:00:13;;;;;;;18.70;10.80;;;;;;;15.52;89.28;96754.27;110077;1247;59656;-69
2022/08/14 01:03:06;;;;;;;13.50;9.30;;;;;;;15.49;89.32;96753.69;110211;1247;70795;-70
2022/08/14 01:05:39;;;;;;;11.90;7.80;;;;;;;15.47;86.24;96755.44;110103;1247;69494;-70
2022/08/14 01:08:30;;;;;;;13.10;9.50;;;;;;;15.46;85.06;96755.70;110072;1247;69398;-69
2022/08/14 01:11:20;;;;;;;;;;;;;;;15.46;86.73;96758.08;110070;1247;59753;-68
2022/08/14 01:13:50;;;;;;;13.30;8.80;;;;;;;15.44;84.64;96756.16;110012;1248;59687;-70
2022/08/14 01:16:30;;;;;;;11.10;8.10;;;;;;;15.44;89.62;96757.77;110037;1248;71297;-70
2022/08/14 01:21:49;;;;;;;11.90;8.60;;;;;;;15.38;89.82;96763.27;110126;1247;68470;-70
2022/08/14 01:24:23;;;;;;;9.70;7.10;;;;;;;15.34;88.96;96763.48;110064;1247;59733;-68
2022/08/14 01:27:06;;;;;;;10.30;6.70;;;;;;;15.32;87.97;96767.89;110026;1247;59625;-70
2022/08/14 01:29:36;;;;;;;11.90;8.60;;;;;;;15.32;88.69;96768.61;110057;1248;70850;-70
2022/08/14 01:32:26;;;;;;;12.30;8.10;;;;;;;15.34;89.58;96771.23;110025;1248;69520;-71
2022/08/14 01:34:57;;;;;;;10.40;6.60;;;;;;;15.34;89.02;96775.75;109691;1250;68523;-71
2022/08/14 01:37:48;;;;;;;11.90;7.90;;;;;;;15.34;86.56;96775.40;110076;1247;59736;-71
2022/08/14 01:40:26;;;;;;;10.80;7.30;;;;;;;15.33;84.90;96777.49;110336;1247;59684;-70
2022/08/14 01:43:16;;;;;;;11.90;7.40;;;;;;;15.30;85.47;96775.11;110137;1248;70741;-72
2022/08/14 01:45:56;;;;;;;14.20;9.20;;;;;;;15.29;89.11;96775.56;110102;1248;68712;-69
2022/08/14 01:48:36;;;;;;;14.60;9.10;;;;;;;15.26;91.55;96770.23;110064;1247;68797;-70
2022/08/14 01:51:06;;;;;;;11.10;7.90;;;;;;;15.25;92.00;96767.55;110140;1248;59712;-68
2022/08/14 01:53:53;;;;;;;13.00;7.50;;;;;;;15.23;91.97;96768.27;110083;1247;59683;-71
2022/08/14 01:56:49;;;;;;;9.30;6.30;;;;;;;15.22;90.06;96765.91;110070;1247;70589;-71
2022/08/14 01:59:32;;;;;;;11.80;7.60;;;;;;;15.21;90.16;96765.98;110096;1247;68641;-69
2022/08/14 02:02:12;;;;;;;13.20;8.30;;;;;;;15.21;89.79;96762.72;110063;1247;68607;-72
2022/08/14 02:04:49;;;;;;;11.50;7.50;;;;;;;15.22;91.54;96757.36;110029;1248;60181;-70
2022/08/14 02:07:25;;;;;;;11.80;7.80;;;;;;;15.22;90.95;96754.57;110089;1247;59627;-70
2022/08/14 02:10:16;;;;;;;11.00;7.00;;;;;;;15.21;90.14;96757.40;110137;1247;71749;-71
2022/08/14 02:12:56;;;;;;;10.20;6.30;;;;;;;15.23;88.49;96753.19;110183;1247;68648;-72
2022/08/14 02:15:29;;;;;;;10.50;7.50;;;;;;;15.27;89.53;96755.44;110204;1247;68490;-70
2022/08/14 02:18:03;;;;;;;13.40;9.00;;;;;;;15.26;91.31;96760.21;110293;1248;59748;-69
2022/08/14 02:20:33;;;;;;;10.60;7.60;;;;;;;15.20;89.45;96763.80;110058;1247;59703;-68
2022/08/14 02:23:04;;;;;;;12.50;7.70;;;;;;;15.19;91.98;96762.70;110157;1247;70818;-69
2022/08/14 02:25:36;;;;;;;12.60;7.60;;;;;;;15.14;91.87;96763.94;110075;1248;67497;-69
2022/08/14 02:28:07;;;;;;;13.00;7.30;;;;;;;15.11;91.50;96762.19;109757;1247;69468;-70
2022/08/14 02:30:59;;;;;;;12.70;8.10;;;;;;;15.08;92.07;96767.44;110120;1247;60164;-69
2022/08/14 02:33:29;;;;;;;13.40;8.70;;;;;;;15.06;92.48;96765.45;110153;1247;59741;-70
2022/08/14 02:36:03;;;;;;;13.90;9.30;;;;;;;15.06;92.95;96761.04;110051;1247;71437;-69
2022/08/14 02:38:53;;;;;;;12.20;8.10;;;;;;;15.05;92.64;96766.44;109758;1250;68488;-71
2022/08/14 02:41:23;;;;;;;13.90;7.90;;;;;;;15.05;92.11;96766.14;110127;1247;68827;-70
2022/08/14 02:43:57;;;;;;;11.80;7.90;;;;;;;15.03;92.27;96766.23;110295;1247;59742;-70
2022/08/14 02:46:29;;;;;;;10.10;7.00;;;;;;;15.04;92.12;96770.82;110134;1247;59689;-70
2022/08/14 02:49:00;;;;;;;12.30;8.20;;;;;;;15.02;91.33;96765.47;110124;1247;71622;-71
2022/08/14 02:51:36;;;;;;;12.40;7.80;;;;;;;15.03;92.73;96769.09;110047;1247;68706;-70
2022/08/14 02:54:08;;;;;;;11.50;7.30;;;;;;;15.01;90.40;96767.72;110090;1247;69233;-70
2022/08/14 02:56:53;;;;;;;10.10;6.20;;;;;;;14.98;88.32;96775.21;110098;1247;59825;-70
2022/08/14 02:59:45;;;;;;;11.30;7.60;;;;;;;14.93;89.87;96777.29;110105;1248;59762;-69
2022/08/14 03:02:15;;;;;;;10.50;7.30;;;;;;;14.91;91.71;96784.30;110154;1247;71480;-70
2022/08/14 03:05:06;;;;;;;12.60;8.40;;;;;;;14.86;92.35;96786.64;110087;1247;68617;-70
2022/08/14 03:07:38;;;;;;;10.10;7.00;;;;;;;14.83;91.41;96787.67;110097;1248;68784;-70
2022/08/14 03:10:10;;;;;;;11.20;7.20;;;;;;;14.80;88.91;96782.13;110036;1248;59754;-70
2022/08/14 03:13:03;;;;;;;12.50;8.00;;;;;;;14.80;87.85;96780.69;110126;1247;59625;-70
2022/08/14 03:15:38;;;;;;;9.90;6.80;;;;;;;14.81;87.93;96785.88;110111;1247;71533;-70
2022/08/14 03:18:12;;;;;;;13.50;7.40;;;;;;;14.81;88.69;96788.90;110160;1247;69393;-70
2022/08/14 03:20:47;;;;;;;9.30;6.60;;;;;;;14.81;90.33;96783.52;110094;1247;69242;-70
2022/08/14 03:23:19;;;;;;;11.20;7.30;;;;;;;14.80;91.01;96783.92;110080;1247;59688;-70
2022/08/14 03:25:49;;;;;;;10.70;6.30;;;;;;;14.80;92.09;96780.02;110129;1247;60068;-70
2022/08/14 03:28:25;;;;;;;14.00;8.40;;;;;;;14.82;91.48;96781.44;110089;1247;71479;-70
2022/08/14 03:31:03;;;;;;;11.30;8.00;;;;;;;14.81;92.79;96783.85;110087;1247;69499;-71
2022/08/14 03:33:42;;;;;;;9.60;7.30;;;;;;;14.78;91.50;96784.34;110087;1248;69399;-69
2022/08/14 03:36:15;;;;;;;11.40;8.00;;;;;;;14.81;92.23;96786.40;110135;1247;59743;-69
2022/08/14 03:39:08;;;;;;;10.90;7.70;;;;;;;14.86;92.83;96787.56;110097;1247;60071;-70
2022/08/14 03:41:55;;;;;;;10.60;6.70;;;;;;;14.89;91.16;96789.34;110087;1247;69827;-73
2022/08/14 03:44:34;;;;;;;10.30;7.10;;;;;;;14.95;91.00;96788.87;109759;1250;68598;-72
2022/08/14 03:47:24;;;;;;;10.90;6.60;;;;;;;15.01;92.32;96788.45;110215;1247;68618;-72
2022/08/14 03:50:14;;;;;;;9.90;6.00;;;;;;;15.07;92.45;96788.89;110742;1247;59807;-73
2022/08/14 03:53:01;;;;;;;11.80;7.60;;;;;;;15.14;92.34;96783.08;110096;1248;59675;-72
2022/08/14 03:55:31;;;;;;;13.70;9.60;;;;;;;15.18;92.31;96785.67;109954;1247;70865;-73
2022/08/14 03:58:00;;;;;;;14.00;8.10;;;;;;;15.21;91.78;96783.91;110191;1247;68674;-72
2022/08/14 04:00:32;;;;;;;12.60;8.00;;;;;;;15.25;91.20;96781.58;110128;1247;69694;-71
2022/08/14 04:03:13;;;;;;;11.50;7.70;;;;;;;15.27;91.02;96784.02;110078;1248;59703;-72
2022/08/14 04:05:52;;;;;;;14.80;8.10;;;;;;;15.28;90.68;96785.70;110089;1248;59711;-72
2022/08/14 04:08:22;;;;;;;12.00;7.70;;;;;;;15.26;90.84;96790.02;110112;1247;70731;-72
2022/08/14 04:10:59;;;;;;;11.00;6.50;;;;;;;15.34;91.08;96791.95;109767;1250;69478;-73
2022/08/14 04:13:38;;;;;;;11.80;7.10;;;;;;;15.44;90.09;96788.23;110084;1247;68690;-73
2022/08/14 04:16:14;;;;;;;11.10;7.30;;;;;;;15.57;88.46;96789.80;110046;1248;59818;-72
2022/08/14 04:18:47;;;;;;;10.50;7.60;;;;;;;15.67;87.55;96793.14;110070;1247;59688;-71
2022/08/14 04:21:17;;;;;;;12.80;8.10;;;;;;;15.74;87.14;96786.05;110137;1247;70827;-73
2022/08/14 04:23:47;;;;;;;;;;;;;;;15.81;88.14;96784.16;110040;1247;68668;-71
2022/08/14 04:26:28;;;;;;;13.40;8.80;;;;;;;15.81;87.66;96782.55;109974;1248;68618;-71
2022/08/14 04:29:12;;;;;;;11.90;8.10;;;;;;;15.78;87.33;96784.22;110074;1247;59686;-72
2022/08/14 04:31:45;;;;;;;11.40;7.50;;;;;;;15.75;87.53;96785.42;110106;1248;59693;-71
2022/08/14 04:34:41;;;;;;;10.30;8.00;;;;;;;15.88;88.06;96787.16;110065;1247;70751;-71
2022/08/14 04:45:51;;;;;;;11.90;7.70;;;;;;;16.76;86.76;96779.70;110103;1248;59740;-71
2022/08/14 04:48:21;;;;;;;;;;;;;;;17.01;85.07;96785.60;110075;1248;70529;-71
2022/08/14 04:51:12;;;;;;;10.10;7.30;;;;;;;17.28;84.03;96784.98;110051;1248;68682;-71
2022/08/14 04:53:44;;;;;;;11.10;7.40;;;;;;;17.63;83.48;96786.35;109056;1246;1759973;-71
2022/08/14 04:56:21;;;;;;;10.50;7.50;;;;;;;18.06;84.78;96790.55;110102;1248;59760;-71
2022/08/14 04:59:05;;;;;;;13.10;8.90;;;;;;;18.53;83.43;96791.56;110134;1248;59637;-71
2022/08/14 05:01:43;;;;;;;12.40;9.30;;;;;;;18.91;81.83;96783.64;110051;1247;70770;-71
2022/08/14 05:04:19;;;;;;;13.20;8.90;;;;;;;19.14;75.64;96780.88;110073;1247;69514;-70
2022/08/14 05:06:53;;;;;;;8.90;7.60;;;;;;;19.35;74.80;96777.40;110139;1248;69478;-72
2022/08/14 05:09:23;;;;;;;11.20;7.80;;;;;;;19.54;74.86;96777.03;110110;1247;59758;-73
2022/08/14 05:11:58;;;;;;;10.50;8.10;;;;;;;19.82;72.98;96781.63;110103;1247;59689;-73
2022/08/14 05:14:47;;;;;;;10.60;7.90;;;;;;;20.09;71.83;96783.29;110223;1247;71920;-70
2022/08/14 05:17:25;;;;;;;9.20;7.30;;;;;;;20.33;70.88;96782.25;110161;1247;69269;-71
2022/08/14 05:20:14;;;;;;;9.60;7.10;;;;;;;20.55;69.65;96780.59;110090;1247;67656;-72
2022/08/14 05:23:15;;;;;;;9.20;7.50;;;;;;;20.82;69.15;96783.38;109960;1248;60137;-72
2022/08/14 05:25:50;;;;;;;12.80;8.20;;;;;;;21.15;68.92;96786.02;110178;1248;59725;-72
2022/08/14 05:28:22;;;;;;;10.20;8.40;;;;;;;21.10;67.84;96781.89;110200;1248;71956;-71
2022/08/14 05:30:54;;;;;;;9.40;7.40;;;;;;;21.29;67.40;96780.69;110211;1250;68587;-71
2022/08/14 05:33:27;;;;;;;9.00;7.60;;;;;;;21.20;67.32;96780.59;110139;1247;70008;-70
2022/08/14 05:36:11;;;;;;;8.80;6.70;;;;;;;21.40;67.03;96780.83;110071;1250;59751;-71
2022/08/14 05:38:46;;;;;;;10.00;7.60;;;;;;;21.72;66.85;96776.70;109912;1250;59688;-69
2022/08/14 05:41:17;;;;;;;9.40;7.40;;;;;;;21.78;65.52;96779.69;110109;1247;70745;-69
2022/08/14 05:43:47;;;;;;;10.30;8.00;;;;;;;21.83;65.79;96777.86;110052;1247;69336;-69
2022/08/14 05:46:23;;;;;;;9.50;7.80;;;;;;;21.81;65.01;96775.12;110035;1250;68678;-69
2022/08/14 05:49:04;;;;;;;11.00;7.30;;;;;;;21.66;65.97;96775.86;110116;1247;59681;-68
2022/08/14 05:51:38;;;;;;;9.70;8.10;;;;;;;21.97;66.34;96779.52;109881;1250;59754;-69
2022/08/14 05:54:07;;;;;;;;;;;;;;;22.29;64.76;96772.46;110083;1248;71938;-69
2022/08/14 05:56:53;;;;;;;7.90;6.80;;;;;;;22.35;63.68;96769.00;110473;1248;68713;-69
2022/08/14 05:59:22;;;;;;;8.30;6.40;;;;;;;22.45;62.35;96770.09;110207;1247;69202;-70
2022/08/14 06:02:08;;;;;;;11.20;7.40;;;;;;;22.46;62.16;96767.47;110123;1247;59734;-71
2022/08/14 06:04:38;;;;;;;8.80;6.80;;;;;;;22.73;61.50;96765.29;110087;1247;59713;-68
2022/08/14 06:07:08;;;;;;;8.90;7.10;;;;;;;23.02;60.34;96763.20;110166;1248;71960;-68
2022/08/14 06:09:37;;;;;;;;;;;;;;;23.29;59.45;96763.31;110146;1248;69273;-69
2022/08/14 06:12:08;;;;;;;9.30;6.80;;;;;;;23.54;58.27;96759.33;109873;1250;69499;-69
2022/08/14 06:14:38;;;;;;;8.10;6.70;;;;;;;23.36;57.25;96767.03;110341;1247;59811;-69
2022/08/14 06:17:06;;;;;;;8.90;6.90;;;;;;;23.66;57.36;96765.59;110119;1248;59735;-69
2022/08/14 06:19:35;;;;;;;9.10;6.40;;;;;;;23.71;56.86;96771.32;110041;1248;71554;-69
2022/08/14 06:22:04;;;;;;;8.40;6.30;;;;;;;23.69;56.75;96770.02;110056;1248;70015;-70
2022/08/14 06:24:36;;;;;;;9.80;5.60;;;;;;;23.56;57.00;96773.11;110035;1247;69173;-68
2022/08/14 06:27:11;;;;;;;7.40;6.00;;;;;;;23.92;56.97;96772.41;110040;1250;59750;-69
2022/08/14 06:29:43;;;;;;;10.20;6.40;;;;;;;24.16;56.22;96770.67;110070;1248;59749;-70
2022/08/14 06:32:12;;;;;;;;;;;;;;;24.30;55.88;96767.77;110071;1248;71477;-69
2022/08/14 06:35:05;;;;;;;7.90;6.70;;;;;;;24.24;55.63;96764.73;110034;1247;69483;-70
2022/08/14 06:37:51;;;;;;;8.90;7.10;;;;;;;24.20;55.20;96763.41;110038;1248;68793;-69
2022/08/14 06:40:24;;;;;;;8.50;6.70;;;;;;;24.46;54.81;96757.27;110044;1248;59722;-69
2022/08/14 06:43:01;;;;;;;10.30;7.20;;;;;;;24.67;54.99;96759.21;110005;1250;59754;-69
2022/08/14 06:45:32;;;;;;;10.00;7.10;;;;;;;24.72;54.82;96758.66;110077;1248;70964;-69
2022/08/14 06:48:02;;;;;;;7.90;6.10;;;;;;;25.13;53.76;96753.45;110069;1248;69331;-69
2022/08/14 06:50:33;;;;;;;7.00;6.30;;;;;;;25.51;53.15;96751.15;110013;1250;69226;-68
2022/08/14 06:53:02;;;;;;;8.70;6.90;;;;;;;26.01;53.06;96751.36;110055;1249;59741;-70
2022/08/14 06:55:32;;;;;;;7.70;6.70;;;;;;;26.15;50.15;96750.61;110093;1248;59690;-70
2022/08/14 06:58:04;;;;;;;9.40;7.20;;;;;;;26.21;50.23;96749.65;110400;1248;70561;-69
2022/08/14 07:06:29;;;;;;;7.20;5.80;;;;;;;26.72;49.84;96745.38;109754;1250;59761;-70
2022/08/14 07:09:14;;;;;;;7.20;5.60;;;;;;;27.37;49.12;96736.02;110006;1247;59705;-70
2022/08/14 07:11:50;;;;;;;8.30;6.30;;;;;;;27.95;48.02;96732.37;110040;1249;71232;-70
2022/08/14 07:14:19;;;;;;;7.70;6.00;;;;;;;28.27;45.58;96730.91;110090;1248;69231;-70
2022/08/14 07:16:48;;;;;;;6.90;5.50;;;;;;;28.58;45.14;96730.16;110023;1248;69581;-69
2022/08/14 07:19:18;;;;;;;8.10;6.00;;;;;;;28.29;44.94;96727.89;110073;1247;59709;-70
2022/08/14 07:21:48;;;;;;;9.00;7.00;;;;;;;28.52;44.03;96727.48;110173;1248;59749;-71
2022/08/14 07:24:17;;;;;;;9.00;6.80;;;;;;;27.84;44.54;96725.64;110082;1248;72256;-73
2022/08/14 07:26:53;;;;;;;10.20;7.00;;;;;;;28.37;44.49;96727.19;110105;1248;70051;-71
2022/08/14 07:29:22;;;;;;;7.70;6.60;;;;;;;28.80;44.35;96724.61;110082;1248;69338;-70
2022/08/14 07:31:57;;;;;;;8.20;6.60;;;;;;;29.05;43.07;96728.81;110101;1247;59685;-71
2022/08/14 07:34:27;;;;;;;8.00;7.20;;;;;;;29.14;42.53;96724.89;110107;1248;59683;-70
2022/08/14 07:37:10;;;;;;;7.10;6.40;;;;;;;29.02;41.29;96725.15;110062;1247;71942;-69
2022/08/14 07:39:39;;;;;;;8.30;6.60;;;;;;;29.00;41.71;96725.13;110098;1247;69252;-68
2022/08/14 07:42:11;;;;;;;7.40;6.10;;;;;;;28.92;42.17;96726.66;110034;1249;70177;-70
2022/08/14 07:44:40;;;;;;;8.10;7.20;;;;;;;29.20;41.92;96723.00;110057;1247;59729;-70
2022/08/14 07:47:17;;;;;;;8.90;7.10;;;;;;;29.43;40.84;96723.39;110064;1248;59666;-71
2022/08/14 07:50:07;;;;;;;7.80;6.70;;;;;;;29.61;41.08;96727.33;110064;1247;71955;-71
2022/08/14 07:52:39;;;;;;;8.40;6.90;;;;;;;30.15;40.78;96727.10;110109;1248;68459;-70
2022/08/14 07:55:14;;;;;;;8.80;7.40;;;;;;;30.40;40.78;96732.28;110020;1248;69239;-70
2022/08/14 07:57:50;;;;;;;8.70;6.70;;;;;;;30.66;39.13;96730.58;110127;1248;59760;-71
2022/08/14 08:00:21;;;;;;;7.50;6.40;;;;;;;30.61;39.10;96730.31;110169;1248;59694;-70
2022/08/14 08:03:00;;;;;;;7.90;6.80;;;;;;;30.53;38.38;96724.75;110223;1248;72420;-69
2022/08/14 08:05:31;;;;;;;8.40;6.90;;;;;;;30.43;38.47;96724.73;110439;1248;68443;-69
2022/08/14 08:08:02;;;;;;;9.20;6.70;;;;;;;30.29;39.77;96728.64;110090;1248;69535;-70
2022/08/14 08:10:37;;;;;;;8.70;7.20;;;;;;;30.45;39.40;96723.95;110102;1248;59739;-71
2022/08/14 08:13:27;;;;;;;8.20;6.40;;;;;;;30.79;38.14;96718.45;110103;1248;59699;-71
2022/08/14 08:15:56;;;;;;;8.30;6.30;;;;;;;30.85;37.80;96718.36;110118;1248;71041;-71
2022/08/14 08:18:25;;;;;;;9.60;7.10;;;;;;;30.99;38.37;96714.52;110125;1246;69561;-72
2022/08/14 08:20:58;;;;;;;8.80;7.20;;;;;;;30.89;38.10;96719.36;110106;1249;69825;-71
2022/08/14 08:23:30;;;;;;;7.80;6.80;;;;;;;30.23;38.13;96711.48;110075;1248;59650;-69
2022/08/14 08:26:18;;;;;;;10.30;8.30;;;;;;;30.38;38.54;96707.98;110079;1248;59685;-69
2022/08/14 08:28:58;;;;;;;8.00;6.60;;;;;;;30.06;38.37;96703.05;110096;1249;70618;-70
2022/08/14 08:31:26;;;;;;;7.40;6.60;;;;;;;30.02;38.56;96701.60;110101;1247;69815;-70
2022/08/14 08:34:05;;;;;;;8.00;7.00;;;;;;;30.15;38.73;96698.02;110079;1246;68218;-70
2022/08/14 08:36:42;;;;;;;8.30;6.30;;;;;;;30.63;39.85;96697.65;110072;1248;59780;-70
2022/08/14 08:39:14;;;;;;;6.90;6.10;;;;;;;30.84;39.00;96696.83;110123;1247;59699;-71
2022/08/14 08:41:50;;;;;;;7.60;6.40;;;;;;;30.77;38.11;96694.34;110052;1248;72040;-69
2022/08/14 08:44:28;;;;;;;7.40;6.60;;;;;;;30.53;37.76;96698.80;110199;1249;69829;-70
2022/08/14 08:47:04;;;;;;;7.90;7.10;;;;;;;30.66;37.76;96690.18;110056;1247;67580;-68
2022/08/14 08:49:38;;;;;;;8.10;7.30;;;;;;;31.02;37.87;96689.95;110022;1248;59699;-70
2022/08/14 08:52:15;;;;;;;7.90;7.10;;;;;;;31.11;37.86;96685.91;110025;1247;59690;-70
2022/08/14 08:54:56;;;;;;;7.40;6.50;;;;;;;31.06;37.76;96689.16;110039;1249;71666;-71
2022/08/14 08:57:25;;;;;;;7.70;6.90;;;;;;;31.55;36.69;96687.53;110028;1247;68715;-70
2022/08/14 08:59:56;;;;;;;7.40;6.70;;;;;;;31.89;36.31;96680.42;110110;1248;68639;-68
2022/08/14 09:02:26;;;;;;;8.40;7.30;;;;;;;31.86;36.73;96678.67;110011;1247;59706;-71
2022/08/14 09:05:02;;;;;;;7.80;7.00;;;;;;;32.18;36.04;96678.92;110107;1248;59675;-70
2022/08/14 09:07:31;;;;;;;10.60;7.90;;;;;;;31.38;36.43;96674.52;110415;1247;71455;-71
2022/08/14 09:10:00;;;;;;;7.50;6.80;;;;;;;31.76;37.10;96675.80;110220;1248;69203;-70
2022/08/14 09:12:32;;;;;;;6.40;5.80;;;;;;;31.83;35.91;96670.93;110157;1248;69928;-70
2022/08/14 09:15:08;;;;;;;6.60;5.80;;;;;;;31.52;36.58;96668.77;110119;1247;59739;-69
2022/08/14 09:17:41;;;;;;;8.50;7.50;;;;;;;31.47;36.64;96667.61;110057;1247;59676;-70
2022/08/14 09:20:11;;;;;;;7.90;7.10;;;;;;;30.86;37.06;96669.10;109723;1248;70780;-70
2022/08/14 09:22:40;;;;;;;8.70;6.30;;;;;;;30.52;38.27;96670.98;110012;1248;69173;-69
2022/08/14 09:25:16;;;;;;;7.00;6.30;;;;;;;30.80;38.64;96667.02;109983;1247;69890;-70
2022/08/14 09:27:47;;;;;;;8.30;6.80;;;;;;;31.09;38.17;96657.98;110028;1248;59767;-69
2022/08/14 09:30:17;;;;;;;8.30;6.60;;;;;;;31.38;40.05;96656.60;110051;1247;59747;-70
2022/08/14 09:33:03;;;;;;;6.30;5.40;;;;;;;32.11;38.67;96656.09;110066;1247;71056;-69
2022/08/14 09:36:11;;;;;;;8.20;7.30;;;;;;;32.98;36.75;96651.24;110037;1247;69850;-70
2022/08/14 09:38:52;;;;;;;9.20;6.60;;;;;;;33.69;35.92;96650.48;110069;1248;69029;-70
2022/08/14 09:41:42;;;;;;;8.30;7.40;;;;;;;33.75;34.54;96650.02;110087;1248;59690;-70
2022/08/14 09:45:24;;;;;;;7.80;6.90;;;;;;;33.26;34.23;96645.03;110059;1247;59688;-69
2022/08/14 09:47:57;;;;;;;10.00;7.00;;;;;;;33.43;33.96;96635.63;109497;1254;70814;-72
2022/08/14 09:50:32;;;;;;;7.80;6.90;;;;;;;33.15;35.52;96629.08;109361;1254;68567;-71
2022/08/14 09:53:04;;;;;;;8.00;6.30;;;;;;;33.55;35.84;96622.70;109775;1248;69237;-70
2022/08/14 09:55:58;;;;;;;10.10;6.70;;;;;;;33.81;34.93;96622.31;110050;1247;59714;-70
2022/08/14 09:58:44;;;;;;;9.50;7.90;;;;;;;33.56;35.15;96616.35;110078;1246;59692;-70
2022/08/14 10:01:16;;;;;;;11.20;7.90;;;;;;;32.99;34.90;96617.31;110135;1247;71334;-70
2022/08/14 10:03:54;;;;;;;9.10;7.80;;;;;;;32.81;35.72;96615.76;110113;1247;68206;-70
2022/08/14 10:06:28;;;;;;;9.40;8.30;;;;;;;32.20;35.93;96611.83;110054;1247;69329;-70
2022/08/14 10:09:00;;;;;;;9.70;7.20;;;;;;;32.17;35.40;96609.02;110100;1248;59745;-70
2022/08/14 10:11:35;;;;;;;8.70;7.80;;;;;;;31.84;36.91;96605.23;110081;1247;59664;-70
2022/08/14 10:14:33;;;;;;;7.30;6.50;;;;;;;32.01;38.30;96606.02;110193;1248;71937;-72
2022/08/14 10:17:06;;;;;;;8.40;7.50;;;;;;;32.81;37.19;96600.44;110133;1248;70169;-71
2022/08/14 10:19:47;;;;;;;8.20;7.30;;;;;;;33.35;35.70;96592.48;110083;1247;69291;-70
2022/08/14 10:22:24;;;;;;;7.90;6.50;;;;;;;34.01;34.89;96598.19;110366;1248;59700;-71
2022/08/14 10:25:16;;;;;;;7.50;6.50;;;;;;;34.88;32.60;96594.05;110491;1248;59687;-69
2022/08/14 10:27:55;;;;;;;6.60;6.00;;;;;;;35.44;31.53;96590.41;110092;1247;71573;-69
2022/08/14 10:30:35;;;;;;;7.80;6.30;;;;;;;35.78;30.73;96586.27;110104;1247;69953;-71
2022/08/14 10:33:04;;;;;;;7.90;7.10;;;;;;;34.99;30.15;96585.22;110162;1248;69215;-70
2022/08/14 10:35:42;;;;;;;7.50;6.50;;;;;;;35.69;31.13;96583.61;110114;1247;59811;-70
2022/08/14 10:38:26;;;;;;;8.00;7.00;;;;;;;35.99;29.93;96581.23;110080;1247;59733;-71
2022/08/14 10:40:56;;;;;;;7.20;6.40;;;;;;;35.50;29.19;96579.31;110108;1247;71951;-69
2022/08/14 10:43:29;;;;;;;6.10;5.50;;;;;;;35.57;29.96;96576.98;110090;1246;70285;-70
2022/08/14 10:46:00;;;;;;;6.50;5.90;;;;;;;36.31;28.38;96571.17;110068;1247;69583;-70
2022/08/14 10:49:03;;;;;;;6.80;6.10;;;;;;;37.32;28.38;96569.20;110037;1247;59689;-71
2022/08/14 10:51:33;;;;;;;6.70;6.00;;;;;;;37.92;27.33;96571.41;110138;1247;59689;-71
2022/08/14 10:54:10;;;;;;;8.00;6.40;;;;;;;38.32;26.37;96572.29;110027;1248;71947;-71
2022/08/14 10:57:20;;;;;;;8.30;6.80;;;;;;;38.06;27.27;96572.13;110064;1248;68436;-71
2022/08/14 10:59:57;;;;;;;6.50;5.80;;;;;;;37.70;26.96;96561.88;110096;1247;69843;-70
2022/08/14 11:02:35;;;;;;;6.60;5.70;;;;;;;38.33;26.85;96560.10;110126;1247;59761;-70
2022/08/14 11:05:25;;;;;;;7.30;5.90;;;;;;;38.15;27.22;96556.64;110095;1248;59702;-70
2022/08/14 11:07:55;;;;;;;7.00;5.80;;;;;;;38.31;26.50;96554.53;110140;1245;71488;-72
2022/08/14 11:10:54;;;;;;;6.10;5.50;;;;;;;38.61;26.44;96550.45;110066;1247;69193;-70
2022/08/14 11:13:26;;;;;;;7.00;6.20;;;;;;;38.49;26.24;96543.02;110140;1246;69062;-72
2022/08/14 11:16:00;;;;;;;7.70;5.80;;;;;;;38.57;26.28;96544.75;110128;1247;59769;-73
2022/08/14 11:18:31;;;;;;;8.10;6.30;;;;;;;38.87;24.87;96537.15;110109;1247;59696;-71
2022/08/14 11:21:08;;;;;;;6.40;5.70;;;;;;;37.69;25.47;96534.12;110080;1247;72120;-73
2022/08/14 11:23:38;;;;;;;8.90;7.30;;;;;;;38.34;25.11;96530.91;110211;1247;69426;-71
2022/08/14 11:26:14;;;;;;;8.50;7.60;;;;;;;36.95;26.23;96522.78;110237;1247;69897;-71
2022/08/14 11:28:47;;;;;;;6.90;5.90;;;;;;;36.61;26.44;96521.73;110519;1248;59625;-70
2022/08/14 11:31:22;;;;;;;8.60;7.80;;;;;;;35.33;28.52;96520.38;110416;1247;59669;-73
2022/08/14 11:33:55;;;;;;;6.80;6.00;;;;;;;35.61;28.54;96520.80;110108;1247;71563;-71
2022/08/14 11:36:27;;;;;;;8.20;7.30;;;;;;;35.90;27.34;96517.84;110298;1247;69826;-68
2022/08/14 11:39:20;;;;;;;6.10;5.50;;;;;;;36.22;26.91;96519.58;110126;1247;69358;-70
2022/08/14 11:42:18;;;;;;;6.40;5.40;;;;;;;36.68;27.52;96509.81;110197;1247;59800;-69
2022/08/14 11:45:07;;;;;;;6.40;5.70;;;;;;;36.54;26.31;96504.55;110131;1247;59671;-71
2022/08/14 11:47:39;;;;;;;7.70;7.00;;;;;;;36.62;26.36;96504.09;110110;1247;71585;-69
2022/08/14 11:50:30;;;;;;;7.30;6.60;;;;;;;36.06;27.21;96500.95;110153;1245;69793;-70
2022/08/14 11:53:06;;;;;;;8.10;6.60;;;;;;;35.82;26.52;96501.13;110131;1247;69675;-69
2022/08/14 11:55:37;;;;;;;8.30;6.40;;;;;;;35.23;27.60;96493.04;110077;1247;59728;-71
2022/08/14 11:58:10;;;;;;;6.70;6.00;;;;;;;34.93;27.98;96494.48;110008;1248;59976;-68
2022/08/14 12:00:53;;;;;;;6.60;5.90;;;;;;;34.02;29.00;96498.59;110016;1247;70695;-71
2022/08/14 12:03:22;;;;;;;7.90;6.20;;;;;;;34.33;28.77;96500.51;110035;1247;69791;-70
2022/08/14 12:06:08;;;;;;;8.60;7.30;;;;;;;34.05;28.98;96503.48;110171;1247;69212;-72
2022/08/14 12:08:56;;;;;;;7.10;6.30;;;;;;;33.38;30.69;96501.42;110060;1247;59682;-71
2022/08/14 12:11:39;;;;;;;7.50;6.70;;;;;;;33.32;31.34;96502.85;110040;1247;59666;-70
2022/08/14 12:14:12;;;;;;;7.20;6.50;;;;;;;32.99;32.77;96504.17;110099;1247;72127;-70
2022/08/14 12:17:06;;;;;;;7.20;6.50;;;;;;;32.23;32.60;96505.81;110007;1247;68873;-72
2022/08/14 12:19:46;;;;;;;9.20;7.80;;;;;;;31.71;33.16;96510.08;110052;1247;69379;-70
2022/08/14 12:22:50;;;;;;;8.60;6.50;;;;;;;31.29;34.28;96507.54;110027;1247;59780;-70
2022/08/14 12:25:22;;;;;;;7.30;6.60;;;;;;;31.26;34.18;96506.17;109916;1247;59729;-69